Time;durP1;ratioP1;P1;durP2;ratioP2;P2;SDS_P1;SDS_P2;PMS_P1;PMS_P2;Temp;Humidity;BMP_temperature;BMP_pressure;BME280_temperature;BME280_humidity;BME280_pressure;Samples;Min_cycle;Max_cycle;Signal;HPM_P1;HPM_P2
2023/05/24 00:01:24;;;;;;;3.22;2.88;;;16.80;71.60;;;;;;5013017;28;20033;-62
2023/05/24 00:03:53;;;;;;;2.80;2.60;;;16.80;71.60;;;;;;5014368;28;20033;-62
2023/05/24 00:06:19;;;;;;;3.83;2.90;;;16.80;71.80;;;;;;5010167;28;20867;-62
2023/05/24 00:08:45;;;;;;;3.08;2.88;;;16.70;71.60;;;;;;5005239;28;20033;-62
2023/05/24 00:11:11;;;;;;;3.10;2.90;;;16.70;71.50;;;;;;5018024;28;20509;-62
2023/05/24 00:13:37;;;;;;;2.85;2.58;;;16.70;71.60;;;;;;5008240;28;20052;-62
2023/05/24 00:16:02;;;;;;;3.20;3.00;;;16.70;71.70;;;;;;5007222;28;20414;-61
2023/05/24 00:18:31;;;;;;;3.92;3.33;;;16.70;71.80;;;;;;5005338;28;20037;-63
2023/05/24 00:20:57;;;;;;;3.10;2.90;;;16.60;71.80;;;;;;5005908;28;20034;-61
2023/05/24 00:23:24;;;;;;;3.08;2.88;;;16.60;71.90;;;;;;5006454;28;20485;-61
2023/05/24 00:25:50;;;;;;;3.58;3.28;;;16.60;72.00;;;;;;5006630;28;20080;-63
2023/05/24 00:28:16;;;;;;;3.47;3.17;;;16.50;72.00;;;;;;5007262;28;20490;-61
2023/05/24 00:30:41;;;;;;;3.40;3.15;;;16.50;72.10;;;;;;5004602;28;20049;-62
2023/05/24 00:33:07;;;;;;;3.40;3.10;;;16.50;72.10;;;;;;5006368;28;20528;-63
2023/05/24 00:35:32;;;;;;;3.25;3.00;;;16.50;72.10;;;;;;5005859;28;20038;-61
2023/05/24 00:37:58;;;;;;;3.42;3.20;;;16.50;72.10;;;;;;5005564;28;20044;-62
2023/05/24 00:40:24;;;;;;;3.40;3.17;;;16.50;72.10;;;;;;5005561;28;20505;-63
2023/05/24 00:42:49;;;;;;;3.17;2.95;;;16.50;72.20;;;;;;5004558;28;20408;-62
2023/05/24 00:45:15;;;;;;;3.05;2.85;;;16.50;72.10;;;;;;5009048;28;20046;-63
2023/05/24 00:47:41;;;;;;;3.60;3.30;;;16.50;72.20;;;;;;5009092;28;20041;-61
2023/05/24 00:50:08;;;;;;;4.20;3.38;;;16.50;72.20;;;;;;5008638;28;20052;-63
2023/05/24 00:52:35;;;;;;;3.70;3.40;;;16.50;72.30;;;;;;5009605;28;20522;-61
2023/05/24 00:55:01;;;;;;;3.25;3.05;;;16.50;72.30;;;;;;5010991;28;20095;-62
2023/05/24 00:57:27;;;;;;;3.92;3.63;;;16.50;72.30;;;;;;5010456;28;20076;-62
2023/05/24 00:59:55;;;;;;;4.07;3.78;;;16.50;72.30;;;;;;5010724;28;20490;-63
2023/05/24 01:02:20;;;;;;;4.20;3.90;;;16.40;72.10;;;;;;5005326;28;20524;-61
2023/05/24 01:04:47;;;;;;;4.68;4.28;;;16.40;72.10;;;;;;5008355;28;20125;-62
2023/05/24 01:07:16;;;;;;;4.47;4.03;;;16.40;72.00;;;;;;5009020;28;20235;-62
2023/05/24 01:10:19;;;;;;;4.57;4.18;;;16.40;72.00;;;;;;5009694;28;20042;-62
2023/05/24 01:12:55;;;;;;;4.63;4.22;;;16.40;72.30;;;;;;5006988;28;20045;-61
2023/05/24 01:15:23;;;;;;;5.35;4.25;;;16.40;72.10;;;;;;5012940;28;20037;-62
2023/05/24 01:18:25;;;;;;;4.78;4.38;;;16.30;72.10;;;;;;5009837;28;20579;-63
2023/05/24 01:21:17;;;;;;;4.82;4.32;;;16.30;72.60;;;;;;5009133;28;20046;-63
2023/05/24 01:24:06;;;;;;;4.50;4.10;;;16.30;72.50;;;;;;4996399;28;20037;-62
2023/05/24 01:26:57;;;;;;;5.35;4.85;;;16.30;72.40;;;;;;5006015;28;20099;-61
2023/05/24 01:29:24;;;;;;;4.97;4.57;;;16.30;72.50;;;;;;5008688;28;20405;-61
2023/05/24 01:31:50;;;;;;;5.45;4.95;;;16.20;72.50;;;;;;5009108;28;20034;-63
2023/05/24 01:34:16;;;;;;;5.43;4.82;;;16.20;72.60;;;;;;5008810;28;20485;-62
2023/05/24 01:36:41;;;;;;;5.13;4.63;;;16.20;72.70;;;;;;5008867;28;20175;-62
2023/05/24 01:39:07;;;;;;;5.43;4.93;;;16.20;72.80;;;;;;5007986;28;20038;-63
2023/05/24 01:41:55;;;;;;;6.03;5.18;;;16.10;72.60;;;;;;5009537;28;20042;-61
2023/05/24 01:44:30;;;;;;;5.30;4.80;;;16.10;72.90;;;;;;5009754;28;20034;-63
2023/05/24 01:47:33;;;;;;;5.43;4.93;;;16.10;73.00;;;;;;5010992;28;20511;-62
2023/05/24 01:50:17;;;;;;;5.47;4.97;;;16.10;73.10;;;;;;5008274;28;20420;-62
2023/05/24 01:52:45;;;;;;;5.32;4.82;;;16.10;72.90;;;;;;5008909;28;20030;-63
2023/05/24 01:55:14;;;;;;;5.72;5.03;;;16.10;72.80;;;;;;5008128;28;20057;-63
2023/05/24 01:57:44;;;;;;;6.25;5.72;;;16.10;73.10;;;;;;5011463;28;20033;-63
2023/05/24 02:00:13;;;;;;;6.03;5.45;;;16.10;73.20;;;;;;5016210;28;20042;-63
2023/05/24 02:02:39;;;;;;;6.40;5.80;;;16.00;74.00;;;;;;5011258;28;20042;-62
2023/05/24 02:05:05;;;;;;;6.43;5.43;;;16.00;73.20;;;;;;5009356;28;20049;-61
2023/05/24 02:07:31;;;;;;;6.15;5.55;;;16.00;73.30;;;;;;5008817;28;20190;-63
2023/05/24 02:09:56;;;;;;;5.80;5.20;;;16.00;73.30;;;;;;5011919;28;20423;-63
2023/05/24 02:12:22;;;;;;;5.30;4.80;;;16.00;73.30;;;;;;5006878;28;20034;-63
2023/05/24 02:14:49;;;;;;;5.40;4.97;;;15.90;73.30;;;;;;5009018;28;20894;-62
2023/05/24 02:17:18;;;;;;;5.47;4.85;;;15.90;73.50;;;;;;5012968;28;20430;-63
2023/05/24 02:19:43;;;;;;;5.65;5.10;;;15.90;73.30;;;;;;5013819;28;20038;-63
2023/05/24 02:22:09;;;;;;;5.18;4.65;;;15.90;73.10;;;;;;5007023;28;20026;-62
2023/05/24 02:24:36;;;;;;;5.13;4.63;;;15.90;72.80;;;;;;5009543;28;20030;-63
2023/05/24 02:27:01;;;;;;;5.15;4.60;;;15.80;72.60;;;;;;5008459;28;20034;-62
2023/05/24 02:29:27;;;;;;;7.78;4.40;;;15.80;72.50;;;;;;5006113;28;20061;-61
2023/05/24 02:31:55;;;;;;;5.13;4.25;;;15.80;72.30;;;;;;5007992;28;20037;-62
2023/05/24 02:34:22;;;;;;;5.40;4.57;;;15.80;72.20;;;;;;5008531;28;20026;-63
2023/05/24 02:36:48;;;;;;;7.80;4.78;;;15.80;72.00;;;;;;5008922;28;20053;-62
2023/05/24 02:39:13;;;;;;;5.80;4.40;;;15.70;71.90;;;;;;5007850;28;20064;-62
2023/05/24 02:41:39;;;;;;;4.85;4.45;;;15.70;71.80;;;;;;5006099;28;20447;-62
2023/05/24 02:44:05;;;;;;;5.32;4.03;;;15.70;71.80;;;;;;5007325;28;20045;-62
2023/05/24 02:46:31;;;;;;;5.32;4.30;;;15.70;71.90;;;;;;5005783;28;20049;-63
2023/05/24 02:48:57;;;;;;;5.53;4.80;;;15.60;71.60;;;;;;5009121;28;20108;-62
2023/05/24 02:51:23;;;;;;;5.03;4.28;;;15.60;71.50;;;;;;5007883;28;20068;-62
2023/05/24 02:53:48;;;;;;;5.57;4.80;;;15.60;71.40;;;;;;5005075;28;20034;-62
2023/05/24 02:56:16;;;;;;;4.65;4.10;;;15.60;71.30;;;;;;5009284;28;20572;-62
2023/05/24 02:58:43;;;;;;;5.40;4.45;;;15.50;71.20;;;;;;5003440;28;20123;-62
2023/05/24 03:01:11;;;;;;;5.45;4.15;;;15.50;71.30;;;;;;5004436;28;20034;-63
2023/05/24 03:03:37;;;;;;;5.82;4.20;;;15.40;71.30;;;;;;5006972;28;20041;-63
2023/05/24 03:06:03;;;;;;;4.90;4.03;;;15.40;71.20;;;;;;5006871;28;20030;-62
2023/05/24 03:08:28;;;;;;;5.95;4.38;;;15.30;71.30;;;;;;5001047;28;20037;-63
2023/05/24 03:10:54;;;;;;;7.70;4.47;;;15.30;71.20;;;;;;5001529;28;20081;-63
2023/05/24 03:13:19;;;;;;;5.55;4.47;;;15.30;71.10;;;;;;5006793;28;20037;-62
2023/05/24 03:15:45;;;;;;;6.68;4.45;;;15.30;71.60;;;;;;5004819;28;20364;-62
2023/05/24 03:18:11;;;;;;;6.45;4.78;;;15.30;71.30;;;;;;5003861;28;20026;-63
2023/05/24 03:20:36;;;;;;;5.95;4.20;;;15.20;71.30;;;;;;5004512;28;20505;-62
2023/05/24 03:23:02;;;;;;;7.10;4.78;;;15.20;71.30;;;;;;5002230;28;20080;-62
2023/05/24 03:25:27;;;;;;;5.22;4.43;;;15.20;71.30;;;;;;5004364;28;20739;-62
2023/05/24 03:27:53;;;;;;;5.22;4.25;;;15.10;71.30;;;;;;5000742;28;20037;-62
2023/05/24 03:30:18;;;;;;;5.57;4.53;;;15.10;71.30;;;;;;5001730;28;20104;-62
2023/05/24 03:32:44;;;;;;;6.50;4.50;;;15.10;71.30;;;;;;5004856;28;20044;-63
2023/05/24 03:35:10;;;;;;;6.93;4.72;;;15.10;71.20;;;;;;5011784;28;20411;-63
2023/05/24 03:37:36;;;;;;;5.78;4.53;;;15.10;71.30;;;;;;5005916;28;20049;-63
2023/05/24 03:40:03;;;;;;;6.53;4.53;;;15.10;71.30;;;;;;5009582;28;20033;-63
2023/05/24 03:42:29;;;;;;;5.68;4.65;;;15.00;71.30;;;;;;5005534;28;20046;-63
2023/05/24 03:44:55;;;;;;;6.60;4.80;;;15.00;71.30;;;;;;5006472;28;20522;-63
2023/05/24 03:47:20;;;;;;;6.80;4.38;;;15.00;71.20;;;;;;5009862;28;20037;-63
2023/05/24 03:49:46;;;;;;;8.07;4.90;;;14.90;71.20;;;;;;5009819;28;20434;-61
2023/05/24 03:52:11;;;;;;;6.32;4.97;;;14.90;71.30;;;;;;5007492;28;20049;-62
2023/05/24 03:54:37;;;;;;;5.82;4.78;;;14.90;71.30;;;;;;5006995;28;20672;-63
2023/05/24 03:57:03;;;;;;;5.60;4.57;;;14.80;71.20;;;;;;5011220;28;20124;-63
2023/05/24 03:59:30;;;;;;;5.18;4.45;;;14.80;71.30;;;;;;5007090;28;22067;-61
2023/05/24 04:01:55;;;;;;;8.75;5.32;;;14.70;71.50;;;;;;5006310;28;20036;-63
2023/05/24 04:04:21;;;;;;;7.25;4.85;;;14.70;71.60;;;;;;5011186;28;20034;-62
2023/05/24 04:06:48;;;;;;;7.13;5.53;;;14.70;71.70;;;;;;5007197;28;20557;-63
2023/05/24 04:09:15;;;;;;;7.70;5.22;;;14.70;71.80;;;;;;5006392;28;20042;-63
2023/05/24 04:11:40;;;;;;;7.68;5.95;;;14.60;71.70;;;;;;5008756;28;20042;-61
2023/05/24 04:14:06;;;;;;;9.90;6.25;;;14.60;71.80;;;;;;5007526;28;20547;-63
2023/05/24 04:16:35;;;;;;;10.88;6.70;;;14.60;71.50;;;;;;5010116;28;20042;-61
2023/05/24 04:19:02;;;;;;;8.82;6.03;;;14.50;71.30;;;;;;5009425;28;20045;-62
2023/05/24 04:21:28;;;;;;;9.18;6.47;;;14.50;71.30;;;;;;5007865;28;20041;-63
2023/05/24 04:23:55;;;;;;;11.50;6.28;;;14.40;71.30;;;;;;5008431;28;20030;-63
2023/05/24 04:26:21;;;;;;;9.45;5.78;;;14.40;71.30;;;;;;5004991;28;20041;-63
2023/05/24 04:28:47;;;;;;;9.85;5.43;;;14.40;71.50;;;;;;4999598;28;20049;-63
2023/05/24 04:31:14;;;;;;;7.97;5.05;;;14.40;71.50;;;;;;5006307;28;20034;-62
2023/05/24 04:33:40;;;;;;;9.27;5.03;;;14.30;71.50;;;;;;5008901;28;20511;-62
2023/05/24 04:36:07;;;;;;;7.47;5.07;;;14.30;71.60;;;;;;5013993;28;20467;-63
2023/05/24 04:38:34;;;;;;;9.38;5.38;;;14.20;71.70;;;;;;5007961;28;20124;-61
2023/05/24 04:41:01;;;;;;;8.40;5.25;;;14.20;71.80;;;;;;5012506;28;20049;-62
2023/05/24 04:43:27;;;;;;;10.23;5.47;;;14.20;72.00;;;;;;5013155;28;20506;-62
2023/05/24 04:45:56;;;;;;;11.88;6.75;;;14.10;71.80;;;;;;5011775;28;20049;-63
2023/05/24 04:48:23;;;;;;;10.15;5.45;;;14.10;71.60;;;;;;5011423;28;20033;-63
2023/05/24 04:50:53;;;;;;;7.70;5.25;;;14.20;71.60;;;;;;5010258;28;20704;-63
2023/05/24 04:53:22;;;;;;;10.45;5.32;;;14.10;71.70;;;;;;5014222;28;20341;-61
2023/05/24 04:55:49;;;;;;;7.25;5.20;;;14.10;71.60;;;;;;5011117;28;20509;-61
2023/05/24 04:58:14;;;;;;;11.77;5.13;;;14.10;71.70;;;;;;5014494;28;20576;-63
2023/05/24 05:00:41;;;;;;;7.85;4.85;;;14.10;71.70;;;;;;5012622;28;20033;-63
2023/05/24 05:03:06;;;;;;;8.90;4.55;;;14.10;71.70;;;;;;5012220;28;20065;-63
2023/05/24 05:05:32;;;;;;;7.30;4.18;;;14.10;71.30;;;;;;5012738;28;20513;-62
2023/05/24 05:07:58;;;;;;;8.25;4.57;;;14.10;70.90;;;;;;5014231;28;20037;-63
2023/05/24 05:10:23;;;;;;;8.20;4.30;;;14.10;70.80;;;;;;5012629;28;20049;-62
2023/05/24 05:12:49;;;;;;;7.82;4.40;;;14.10;70.80;;;;;;5011218;28;20034;-61
2023/05/24 05:15:15;;;;;;;9.00;4.20;;;14.00;70.60;;;;;;5012292;28;20037;-63
2023/05/24 05:17:40;;;;;;;9.00;4.00;;;14.10;70.70;;;;;;5012072;28;20048;-63
2023/05/24 05:20:06;;;;;;;8.85;4.00;;;14.00;70.70;;;;;;5013167;28;20178;-63
2023/05/24 05:22:32;;;;;;;9.63;4.15;;;14.00;70.70;;;;;;5012924;28;20038;-64
2023/05/24 05:24:59;;;;;;;9.20;4.13;;;14.00;70.80;;;;;;5011197;28;20866;-63
2023/05/24 05:27:25;;;;;;;9.00;4.10;;;14.00;70.90;;;;;;5012116;28;20037;-63
2023/05/24 05:29:50;;;;;;;10.55;3.92;;;14.00;70.90;;;;;;5013838;28;20034;-63
2023/05/24 05:32:16;;;;;;;8.68;3.65;;;14.00;70.80;;;;;;5014081;28;20088;-63
2023/05/24 05:34:41;;;;;;;9.32;4.05;;;14.00;70.80;;;;;;5015574;28;20029;-63
2023/05/24 05:37:07;;;;;;;6.82;4.10;;;14.00;70.80;;;;;;5012874;28;21019;-63
2023/05/24 05:39:32;;;;;;;7.35;3.80;;;14.00;70.90;;;;;;5017180;28;20042;-62
2023/05/24 05:41:58;;;;;;;7.97;3.85;;;14.10;70.90;;;;;;5015201;28;20030;-62
2023/05/24 05:44:24;;;;;;;10.07;3.58;;;14.10;70.80;;;;;;5016385;28;20129;-62
2023/05/24 05:46:49;;;;;;;11.60;3.80;;;14.20;70.70;;;;;;5016099;28;20234;-61
2023/05/24 05:49:17;;;;;;;9.90;3.88;;;14.20;70.60;;;;;;5015531;28;20071;-62
2023/05/24 05:51:43;;;;;;;6.60;3.40;;;14.30;70.30;;;;;;5014858;28;20421;-62
2023/05/24 05:54:13;;;;;;;8.43;3.78;;;14.30;70.00;;;;;;5016133;28;20048;-62
2023/05/24 05:56:48;;;;;;;10.27;3.53;;;14.30;70.00;;;;;;5018190;28;20038;-62
2023/05/24 05:59:14;;;;;;;9.52;3.75;;;14.30;69.80;;;;;;5016181;28;20033;-63
2023/05/24 06:01:40;;;;;;;8.02;3.55;;;14.30;69.90;;;;;;5016649;28;20083;-63
2023/05/24 06:04:06;;;;;;;7.80;3.60;;;14.40;69.90;;;;;;5016454;28;20069;-62
2023/05/24 06:06:32;;;;;;;6.80;3.50;;;14.40;69.70;;;;;;5012193;28;20064;-63
2023/05/24 06:08:59;;;;;;;7.95;3.67;;;14.40;69.40;;;;;;5016321;28;20972;-63
2023/05/24 06:11:25;;;;;;;8.55;3.33;;;14.50;69.00;;;;;;5013960;28;20036;-63
2023/05/24 06:13:51;;;;;;;7.93;3.53;;;14.50;68.90;;;;;;5015318;28;20041;-62
2023/05/24 06:16:17;;;;;;;9.70;3.90;;;14.50;68.80;;;;;;5015265;28;20034;-63
2023/05/24 06:18:43;;;;;;;13.40;3.80;;;14.60;68.60;;;;;;5015324;28;20513;-63
2023/05/24 06:21:09;;;;;;;10.70;3.72;;;14.60;68.40;;;;;;5014223;28;20068;-61
2023/05/24 06:23:38;;;;;;;8.55;3.65;;;14.60;68.30;;;;;;5014898;28;20025;-62
2023/05/24 06:26:04;;;;;;;8.00;3.92;;;14.60;68.00;;;;;;5014094;28;20046;-63
2023/05/24 06:28:29;;;;;;;8.20;3.70;;;14.60;68.10;;;;;;5014167;28;20045;-63
2023/05/24 06:30:55;;;;;;;7.15;3.45;;;14.60;67.90;;;;;;5015140;28;20029;-63
2023/05/24 06:33:21;;;;;;;6.05;3.20;;;14.60;67.70;;;;;;5016953;28;20045;-63
2023/05/24 06:35:47;;;;;;;6.47;3.38;;;14.60;67.80;;;;;;5014625;28;20075;-62
2023/05/24 06:38:13;;;;;;;6.28;3.25;;;14.60;67.80;;;;;;5014642;28;20030;-63
2023/05/24 06:40:38;;;;;;;6.20;3.50;;;14.60;67.80;;;;;;5016104;28;20030;-62
2023/05/24 06:43:04;;;;;;;12.70;4.22;;;14.60;67.90;;;;;;5015479;28;20525;-63
2023/05/24 06:45:30;;;;;;;7.68;3.83;;;14.60;67.80;;;;;;5013361;28;20073;-62
2023/05/24 06:47:55;;;;;;;7.53;4.03;;;14.50;67.80;;;;;;5015911;28;20038;-63
2023/05/24 06:50:22;;;;;;;7.85;3.83;;;14.50;67.90;;;;;;5014181;28;20046;-62
2023/05/24 06:52:48;;;;;;;9.95;4.18;;;14.50;67.30;;;;;;5013821;28;20042;-62
2023/05/24 06:55:14;;;;;;;8.10;3.60;;;14.50;67.40;;;;;;5013707;28;20417;-62
2023/05/24 06:57:40;;;;;;;10.00;3.47;;;14.40;67.20;;;;;;5015636;28;20068;-62
2023/05/24 07:00:10;;;;;;;7.82;3.13;;;14.40;67.50;;;;;;5015515;28;20476;-63
2023/05/24 07:02:39;;;;;;;11.15;3.95;;;14.40;68.50;;;;;;5012402;28;20076;-63
2023/05/24 07:05:10;;;;;;;7.22;3.78;;;14.40;67.70;;;;;;5014666;28;20044;-62
2023/05/24 07:07:40;;;;;;;8.80;3.60;;;14.40;67.50;;;;;;5015159;28;20113;-62
2023/05/24 07:10:10;;;;;;;8.95;3.95;;;14.40;67.50;;;;;;5013551;28;20034;-62
2023/05/24 07:12:36;;;;;;;14.43;4.03;;;14.40;67.50;;;;;;5010453;28;20387;-63
2023/05/24 07:15:03;;;;;;;9.32;4.20;;;14.40;67.50;;;;;;5014813;28;20034;-63
2023/05/24 07:17:29;;;;;;;10.52;4.20;;;14.40;67.00;;;;;;5013113;28;20149;-63
2023/05/24 07:19:54;;;;;;;10.77;4.10;;;14.30;67.40;;;;;;5014466;28;20585;-63
2023/05/24 07:22:21;;;;;;;7.72;3.97;;;14.30;67.40;;;;;;5012887;28;20038;-63
2023/05/24 07:24:47;;;;;;;10.35;3.70;;;14.30;67.60;;;;;;5015493;28;20042;-63
2023/05/24 07:27:12;;;;;;;7.70;3.60;;;14.30;66.90;;;;;;5013183;28;20036;-62
2023/05/24 07:29:38;;;;;;;8.43;3.95;;;14.30;66.90;;;;;;5014336;28;20039;-62
2023/05/24 07:32:04;;;;;;;12.43;3.58;;;14.30;67.10;;;;;;5013972;28;20344;-63
2023/05/24 07:34:30;;;;;;;13.32;3.55;;;14.30;67.00;;;;;;5015482;28;20128;-63
2023/05/24 07:36:57;;;;;;;10.55;3.38;;;14.40;66.90;;;;;;5011255;28;20081;-63
2023/05/24 07:39:24;;;;;;;10.35;4.00;;;14.40;67.10;;;;;;5013853;28;20555;-61
2023/05/24 07:41:50;;;;;;;8.82;3.63;;;14.40;67.10;;;;;;5013910;28;20107;-62
2023/05/24 07:44:15;;;;;;;9.85;4.10;;;14.50;66.90;;;;;;5014053;28;20034;-62
2023/05/24 07:46:41;;;;;;;9.32;3.58;;;14.50;66.90;;;;;;5011204;28;20122;-62
2023/05/24 07:49:07;;;;;;;9.23;4.13;;;14.50;67.10;;;;;;5013872;28;20061;-62
2023/05/24 07:51:32;;;;;;;16.35;4.43;;;14.60;66.90;;;;;;5012628;28;20064;-63
2023/05/24 07:53:58;;;;;;;12.70;4.50;;;14.60;66.60;;;;;;5014141;28;20038;-63
2023/05/24 07:56:25;;;;;;;10.05;4.43;;;14.60;67.60;;;;;;5012084;28;20041;-63
2023/05/24 07:58:50;;;;;;;9.90;3.90;;;14.60;66.40;;;;;;5013395;28;20715;-63
2023/05/24 08:01:19;;;;;;;8.45;3.90;;;14.70;66.60;;;;;;5011222;28;20134;-62
2023/05/24 08:03:45;;;;;;;7.20;3.70;;;14.70;66.50;;;;;;5011541;28;20030;-62
2023/05/24 08:06:11;;;;;;;11.52;4.35;;;14.70;66.70;;;;;;5014544;28;20053;-63
2023/05/24 08:08:38;;;;;;;10.30;3.88;;;14.70;66.10;;;;;;5014801;28;20045;-62
2023/05/24 08:11:03;;;;;;;9.30;4.40;;;14.70;66.10;;;;;;5010523;28;20116;-63
2023/05/24 08:13:30;;;;;;;10.05;4.10;;;14.70;66.20;;;;;;5012921;28;20092;-62
2023/05/24 08:15:57;;;;;;;6.55;3.80;;;14.70;66.30;;;;;;5012838;28;20035;-63
2023/05/24 08:18:22;;;;;;;12.23;4.00;;;14.70;66.60;;;;;;5015904;28;20041;-62
2023/05/24 08:20:48;;;;;;;7.63;4.00;;;14.80;66.90;;;;;;5013916;28;20398;-63
2023/05/24 08:23:13;;;;;;;8.85;4.20;;;14.80;66.90;;;;;;5014592;28;20282;-63
2023/05/24 08:25:39;;;;;;;13.30;4.70;;;14.90;67.10;;;;;;5013623;28;21598;-63
2023/05/24 08:28:05;;;;;;;7.55;4.25;;;14.90;66.90;;;;;;5012154;28;20038;-63
2023/05/24 08:30:31;;;;;;;9.13;4.80;;;15.00;66.40;;;;;;5013446;28;20052;-63
2023/05/24 08:32:57;;;;;;;13.27;4.70;;;15.00;65.90;;;;;;5014689;28;20030;-63
2023/05/24 08:35:22;;;;;;;10.32;4.00;;;15.10;65.90;;;;;;5014945;28;20505;-62
2023/05/24 08:37:49;;;;;;;11.68;4.18;;;15.10;66.40;;;;;;5012137;28;20048;-62
2023/05/24 08:40:14;;;;;;;15.75;4.85;;;15.10;66.50;;;;;;5014671;28;20037;-62
2023/05/24 08:42:40;;;;;;;8.00;4.32;;;15.20;66.20;;;;;;5012964;28;20033;-62
2023/05/24 08:45:14;;;;;;;6.35;4.20;;;15.20;66.40;;;;;;5015993;28;20029;-63
2023/05/24 08:47:41;;;;;;;10.05;4.97;;;15.30;65.80;;;;;;5013313;28;20117;-63
2023/05/24 08:50:07;;;;;;;10.10;4.82;;;15.40;66.40;;;;;;5013157;28;20561;-63
2023/05/24 08:52:33;;;;;;;8.88;4.60;;;15.40;66.00;;;;;;5013720;28;20049;-63
2023/05/24 08:54:59;;;;;;;11.70;5.35;;;15.50;66.20;;;;;;5014437;28;20037;-63
2023/05/24 08:57:29;;;;;;;8.90;4.70;;;15.60;66.20;;;;;;5014921;28;20096;-63
2023/05/24 08:59:55;;;;;;;10.05;4.68;;;15.70;65.70;;;;;;5014879;28;20026;-62
2023/05/24 09:02:21;;;;;;;9.95;5.15;;;15.70;65.50;;;;;;5015160;28;20034;-63
2023/05/24 09:04:52;;;;;;;10.68;5.68;;;15.80;65.70;;;;;;5014435;28;20254;-63
2023/05/24 09:07:23;;;;;;;10.68;5.22;;;15.90;65.30;;;;;;5010366;28;20473;-63
2023/05/24 09:09:57;;;;;;;11.73;5.22;;;15.90;64.80;;;;;;5019224;28;20045;-62
2023/05/24 09:12:25;;;;;;;11.32;5.30;;;15.90;64.80;;;;;;5016997;28;20390;-63
2023/05/24 09:14:51;;;;;;;8.13;4.43;;;15.90;65.20;;;;;;5016065;28;20348;-63
2023/05/24 09:17:18;;;;;;;14.00;4.65;;;15.90;65.30;;;;;;5015255;28;20137;-62
2023/05/24 09:19:48;;;;;;;9.00;4.80;;;16.00;65.60;;;;;;5015964;28;20036;-63
2023/05/24 09:22:18;;;;;;;12.23;4.63;;;16.00;65.70;;;;;;5015951;28;20501;-62
2023/05/24 09:24:47;;;;;;;10.68;4.80;;;16.10;65.30;;;;;;5015568;28;20045;-63
2023/05/24 09:27:17;;;;;;;11.18;4.70;;;16.10;64.60;;;;;;5015986;28;20048;-63
2023/05/24 09:29:45;;;;;;;11.38;4.63;;;16.20;64.40;;;;;;5015584;28;20044;-63
2023/05/24 09:32:13;;;;;;;9.82;4.90;;;16.20;65.00;;;;;;5017277;28;20104;-63
2023/05/24 09:34:40;;;;;;;21.40;5.90;;;16.30;65.20;;;;;;5014912;28;20390;-63
2023/05/24 09:37:12;;;;;;;10.45;4.30;;;16.30;64.90;;;;;;5016612;28;20050;-63
2023/05/24 09:39:41;;;;;;;8.75;4.65;;;16.40;64.60;;;;;;5015854;28;20037;-62
2023/05/24 09:42:07;;;;;;;10.73;4.80;;;16.40;65.10;;;;;;5015391;28;20038;-62
2023/05/24 09:44:32;;;;;;;10.15;4.68;;;16.50;65.10;;;;;;5016326;28;20618;-63
2023/05/24 09:47:03;;;;;;;10.77;4.70;;;16.50;64.80;;;;;;5018170;28;20040;-63
2023/05/24 09:49:29;;;;;;;9.40;4.18;;;16.60;64.30;;;;;;5017351;28;20513;-63
2023/05/24 09:51:55;;;;;;;8.75;4.32;;;16.60;63.40;;;;;;5012944;28;20056;-63
2023/05/24 09:54:22;;;;;;;9.30;4.40;;;16.60;63.00;;;;;;5017766;28;20417;-63
2023/05/24 09:56:48;;;;;;;10.40;4.57;;;16.60;63.30;;;;;;5016970;28;20042;-62
2023/05/24 09:59:13;;;;;;;11.85;4.88;;;16.60;63.30;;;;;;5018851;28;20041;-63
2023/05/24 10:01:39;;;;;;;8.45;4.20;;;16.60;64.00;;;;;;5016468;28;20037;-62
2023/05/24 10:04:06;;;;;;;11.48;4.57;;;16.60;63.30;;;;;;5016308;28;20042;-63
2023/05/24 10:06:38;;;;;;;11.07;4.18;;;16.60;62.80;;;;;;5015561;28;20394;-63
2023/05/24 10:09:08;;;;;;;9.18;4.38;;;16.60;63.00;;;;;;5015281;28;20596;-63
2023/05/24 10:11:37;;;;;;;11.38;4.15;;;16.60;63.20;;;;;;5014084;28;20529;-61
2023/05/24 10:14:07;;;;;;;8.93;4.28;;;16.60;63.80;;;;;;5015468;28;20130;-63
2023/05/24 10:16:35;;;;;;;9.82;4.28;;;16.60;63.80;;;;;;5017221;28;20040;-62
2023/05/24 10:19:00;;;;;;;9.75;4.65;;;16.60;63.10;;;;;;5017135;28;20041;-63
2023/05/24 10:21:30;;;;;;;11.23;4.28;;;16.50;63.00;;;;;;5016263;28;20379;-61
2023/05/24 10:23:58;;;;;;;11.23;4.93;;;16.50;63.10;;;;;;5016698;28;20121;-62
2023/05/24 10:26:27;;;;;;;11.38;4.43;;;16.50;62.90;;;;;;5016833;28;20350;-62
2023/05/24 10:29:03;;;;;;;10.20;4.90;;;16.50;63.40;;;;;;5017379;28;20528;-63
2023/05/24 10:31:33;;;;;;;9.40;4.32;;;16.50;62.80;;;;;;5017202;28;20088;-63
2023/05/24 10:34:00;;;;;;;8.00;4.57;;;16.50;63.10;;;;;;5012314;28;20404;-63
2023/05/24 10:36:26;;;;;;;13.77;4.90;;;16.50;63.40;;;;;;5014111;28;20045;-63
2023/05/24 10:38:53;;;;;;;10.95;4.45;;;16.60;63.30;;;;;;5015283;28;20587;-63
2023/05/24 10:41:18;;;;;;;8.73;4.90;;;16.60;63.20;;;;;;5015631;28;20038;-63
2023/05/24 10:43:46;;;;;;;9.68;4.40;;;16.70;62.90;;;;;;5015377;28;20036;-63
2023/05/24 10:46:15;;;;;;;8.70;4.80;;;16.70;63.00;;;;;;5015662;28;20066;-63
2023/05/24 10:48:41;;;;;;;10.85;4.50;;;16.70;62.70;;;;;;5014444;28;20037;-61
2023/05/24 10:51:31;;;;;;;8.55;4.53;;;16.80;62.90;;;;;;5017658;28;20034;-63
2023/05/24 10:53:57;;;;;;;10.95;4.57;;;16.80;62.80;;;;;;5015997;28;20077;-62
2023/05/24 10:56:26;;;;;;;11.02;4.72;;;16.80;62.90;;;;;;5016195;28;20058;-63
2023/05/24 10:58:54;;;;;;;8.48;4.28;;;16.80;62.80;;;;;;5015794;28;20512;-63
2023/05/24 11:01:44;;;;;;;9.63;4.60;;;16.90;63.50;;;;;;5015875;28;20075;-63
2023/05/24 11:04:17;;;;;;;8.35;4.15;;;16.90;61.70;;;;;;5017085;28;20030;-62
2023/05/24 11:07:00;;;;;;;9.25;4.43;;;16.90;62.70;;;;;;5018051;28;20072;-63
2023/05/24 11:09:27;;;;;;;7.30;3.88;;;16.90;62.10;;;;;;5018196;28;20061;-63
2023/05/24 11:12:06;;;;;;;11.00;4.50;;;17.00;62.20;;;;;;5016264;28;20038;-63
2023/05/24 11:14:38;;;;;;;10.48;4.53;;;17.00;61.80;;;;;;5016920;28;20575;-63
2023/05/24 11:17:05;;;;;;;7.70;4.70;;;17.00;62.00;;;;;;5017301;28;20554;-63
2023/05/24 11:19:36;;;;;;;10.63;4.38;;;17.10;61.20;;;;;;5016148;28;20640;-63
2023/05/24 11:22:13;;;;;;;7.88;4.65;;;17.10;60.80;;;;;;5015985;28;20045;-61
2023/05/24 11:24:40;;;;;;;7.88;4.53;;;17.00;61.70;;;;;;5018235;28;20065;-63
2023/05/24 11:27:06;;;;;;;10.50;4.40;;;17.00;60.10;;;;;;5018281;28;20087;-63
2023/05/24 11:29:38;;;;;;;9.80;4.65;;;16.90;60.50;;;;;;5016966;28;20042;-62
2023/05/24 11:32:04;;;;;;;9.40;4.28;;;16.80;60.60;;;;;;5015692;28;20136;-63
2023/05/24 11:34:31;;;;;;;9.95;4.60;;;16.80;60.60;;;;;;5015581;28;20597;-62
2023/05/24 11:36:58;;;;;;;9.13;4.47;;;16.70;60.90;;;;;;5015710;28;20050;-62
2023/05/24 11:39:27;;;;;;;8.98;4.70;;;16.70;61.20;;;;;;5016408;28;20045;-63
2023/05/24 11:41:53;;;;;;;11.48;4.70;;;16.70;61.30;;;;;;5014888;28;20044;-63
2023/05/24 11:44:19;;;;;;;8.23;5.43;;;16.60;61.30;;;;;;5015893;28;20412;-63
2023/05/24 11:46:45;;;;;;;5.88;4.18;;;16.60;61.50;;;;;;5015406;28;20042;-63
2023/05/24 11:49:15;;;;;;;9.02;4.22;;;16.60;62.00;;;;;;5014820;28;20195;-63
2023/05/24 11:51:41;;;;;;;10.57;4.60;;;16.70;61.70;;;;;;5014433;28;20034;-63
2023/05/24 11:54:07;;;;;;;9.60;4.97;;;16.70;61.00;;;;;;5017156;28;20410;-62
2023/05/24 11:56:32;;;;;;;9.18;4.90;;;16.60;60.80;;;;;;5016174;28;20038;-63
2023/05/24 11:59:03;;;;;;;9.73;4.88;;;16.60;61.00;;;;;;5014433;28;20044;-63
2023/05/24 12:01:30;;;;;;;7.65;4.50;;;16.70;61.10;;;;;;5015733;28;20080;-63
2023/05/24 12:03:56;;;;;;;7.47;4.55;;;16.70;60.60;;;;;;5014355;28;20061;-63
2023/05/24 12:06:21;;;;;;;7.55;4.65;;;16.70;60.10;;;;;;5015534;28;20046;-63
2023/05/24 12:08:48;;;;;;;10.52;4.65;;;16.60;59.70;;;;;;5014378;28;20100;-63
2023/05/24 12:11:15;;;;;;;9.07;4.65;;;16.60;60.10;;;;;;5014304;28;20037;-62
2023/05/24 12:13:40;;;;;;;9.52;4.90;;;16.60;60.20;;;;;;5013664;28;20045;-63
2023/05/24 12:16:06;;;;;;;10.13;4.70;;;16.60;60.00;;;;;;5011794;28;20084;-63
2023/05/24 12:18:32;;;;;;;9.70;4.78;;;16.60;60.50;;;;;;5013967;28;20038;-63
2023/05/24 12:20:58;;;;;;;12.38;5.15;;;16.60;60.50;;;;;;5011855;28;20034;-62
2023/05/24 12:23:26;;;;;;;9.88;5.18;;;16.60;60.10;;;;;;5014927;28;20074;-63
2023/05/24 12:26:02;;;;;;;10.80;4.75;;;16.60;60.30;;;;;;5013853;28;20037;-62
2023/05/24 12:28:35;;;;;;;9.45;5.65;;;16.50;60.20;;;;;;5015143;28;20041;-63
2023/05/24 12:31:02;;;;;;;8.15;4.70;;;16.50;60.30;;;;;;5014377;28;20045;-62
2023/05/24 12:33:27;;;;;;;8.27;5.10;;;16.50;60.60;;;;;;5014676;28;20069;-63
2023/05/24 12:35:55;;;;;;;8.50;5.03;;;16.50;60.10;;;;;;5012334;28;20107;-62
2023/05/24 12:38:24;;;;;;;9.82;5.05;;;16.50;60.00;;;;;;5013074;28;20034;-63
2023/05/24 12:40:53;;;;;;;11.18;4.63;;;16.40;60.10;;;;;;5013621;28;20034;-63
2023/05/24 12:43:19;;;;;;;8.45;4.65;;;16.40;60.80;;;;;;5014825;28;20030;-62
2023/05/24 12:45:45;;;;;;;10.25;4.68;;;16.40;60.50;;;;;;5013625;28;20052;-63